Terminal Aerodrome Forecast
Issued by NWS

Home | Current Version | Previous Version | Text Only | Print | Product List | Glossary On
Versions: 1 2 3 4 5 6 7 8 9 10 11 12 13 14 15
000
FTAK31 PAFA 211124
TAFAMC
TAF
PAMC 211124Z 2112/2212 11004KT P6SM OVC060
     FM211400 VRB04KT 5SM BR SCT004 BKN020
     FM211900 VRB04KT P6SM SCT020=

USA.gov is the U.S. government's official web portal to all federal, state and local government web resources and services.